sensor_id;sensor_type;location;lat;lon;timestamp;P1;durP1;ratioP1;P2;durP2;ratioP2
5965;SDS011;3009;43.224;27.976;2024-02-23T00:01:53;27.10;;;18.30;;
5965;SDS011;3009;43.224;27.976;2024-02-23T00:04:21;29.73;;;18.03;;
5965;SDS011;3009;43.224;27.976;2024-02-23T00:06:50;36.80;;;21.60;;
5965;SDS011;3009;43.224;27.976;2024-02-23T00:09:19;34.87;;;19.97;;
5965;SDS011;3009;43.224;27.976;2024-02-23T00:11:47;34.27;;;20.37;;
5965;SDS011;3009;43.224;27.976;2024-02-23T00:14:16;33.33;;;19.80;;
5965;SDS011;3009;43.224;27.976;2024-02-23T00:16:45;31.40;;;18.90;;
5965;SDS011;3009;43.224;27.976;2024-02-23T00:19:15;36.80;;;21.30;;
5965;SDS011;3009;43.224;27.976;2024-02-23T00:21:46;37.53;;;19.60;;
5965;SDS011;3009;43.224;27.976;2024-02-23T00:24:17;28.90;;;20.03;;
5965;SDS011;3009;43.224;27.976;2024-02-23T00:26:47;35.13;;;19.57;;
5965;SDS011;3009;43.224;27.976;2024-02-23T00:29:17;34.57;;;20.17;;
5965;SDS011;3009;43.224;27.976;2024-02-23T00:31:45;30.47;;;19.30;;
5965;SDS011;3009;43.224;27.976;2024-02-23T00:34:16;41.03;;;21.73;;
5965;SDS011;3009;43.224;27.976;2024-02-23T00:36:47;35.23;;;20.37;;
5965;SDS011;3009;43.224;27.976;2024-02-23T00:39:16;37.13;;;19.40;;
5965;SDS011;3009;43.224;27.976;2024-02-23T00:41:44;29.80;;;18.30;;
5965;SDS011;3009;43.224;27.976;2024-02-23T00:44:13;33.40;;;19.50;;
5965;SDS011;3009;43.224;27.976;2024-02-23T00:46:41;34.90;;;19.43;;
5965;SDS011;3009;43.224;27.976;2024-02-23T00:49:10;33.87;;;19.03;;
5965;SDS011;3009;43.224;27.976;2024-02-23T00:51:40;36.90;;;19.23;;
5965;SDS011;3009;43.224;27.976;2024-02-23T00:54:08;38.50;;;18.93;;
5965;SDS011;3009;43.224;27.976;2024-02-23T00:56:37;31.80;;;19.43;;
5965;SDS011;3009;43.224;27.976;2024-02-23T00:59:16;32.40;;;18.97;;
5965;SDS011;3009;43.224;27.976;2024-02-23T01:01:45;32.73;;;20.43;;
5965;SDS011;3009;43.224;27.976;2024-02-23T01:04:14;35.90;;;20.93;;
5965;SDS011;3009;43.224;27.976;2024-02-23T01:06:43;35.93;;;20.30;;
5965;SDS011;3009;43.224;27.976;2024-02-23T01:09:12;30.70;;;19.30;;
5965;SDS011;3009;43.224;27.976;2024-02-23T01:11:42;31.57;;;18.53;;
5965;SDS011;3009;43.224;27.976;2024-02-23T01:14:11;29.13;;;17.43;;
5965;SDS011;3009;43.224;27.976;2024-02-23T01:16:41;33.03;;;19.27;;
5965;SDS011;3009;43.224;27.976;2024-02-23T01:19:09;33.90;;;20.33;;
5965;SDS011;3009;43.224;27.976;2024-02-23T01:21:38;37.17;;;19.67;;
5965;SDS011;3009;43.224;27.976;2024-02-23T01:24:08;30.40;;;17.70;;
5965;SDS011;3009;43.224;27.976;2024-02-23T01:26:36;34.40;;;19.70;;
5965;SDS011;3009;43.224;27.976;2024-02-23T01:29:08;33.47;;;20.23;;
5965;SDS011;3009;43.224;27.976;2024-02-23T01:31:37;28.60;;;17.60;;
5965;SDS011;3009;43.224;27.976;2024-02-23T01:34:05;28.13;;;17.53;;
5965;SDS011;3009;43.224;27.976;2024-02-23T01:36:35;30.27;;;18.70;;
5965;SDS011;3009;43.224;27.976;2024-02-23T01:39:03;37.30;;;18.80;;
5965;SDS011;3009;43.224;27.976;2024-02-23T01:41:33;27.10;;;17.50;;
5965;SDS011;3009;43.224;27.976;2024-02-23T01:44:02;32.23;;;18.73;;
5965;SDS011;3009;43.224;27.976;2024-02-23T01:46:31;27.93;;;16.67;;
5965;SDS011;3009;43.224;27.976;2024-02-23T01:49:00;30.70;;;18.93;;
5965;SDS011;3009;43.224;27.976;2024-02-23T01:51:29;29.30;;;16.20;;
5965;SDS011;3009;43.224;27.976;2024-02-23T01:53:58;24.50;;;16.47;;
5965;SDS011;3009;43.224;27.976;2024-02-23T01:56:27;30.07;;;18.50;;
5965;SDS011;3009;43.224;27.976;2024-02-23T01:58:57;24.47;;;16.53;;
5965;SDS011;3009;43.224;27.976;2024-02-23T02:01:26;28.70;;;16.93;;
5965;SDS011;3009;43.224;27.976;2024-02-23T02:03:55;24.73;;;17.23;;
5965;SDS011;3009;43.224;27.976;2024-02-23T02:06:24;29.47;;;17.97;;
5965;SDS011;3009;43.224;27.976;2024-02-23T02:08:53;24.70;;;15.73;;
5965;SDS011;3009;43.224;27.976;2024-02-23T02:11:21;25.97;;;16.33;;
5965;SDS011;3009;43.224;27.976;2024-02-23T02:13:50;24.63;;;16.70;;
5965;SDS011;3009;43.224;27.976;2024-02-23T02:16:20;30.27;;;18.63;;
5965;SDS011;3009;43.224;27.976;2024-02-23T02:18:49;24.00;;;16.07;;
5965;SDS011;3009;43.224;27.976;2024-02-23T02:21:18;29.63;;;17.83;;
5965;SDS011;3009;43.224;27.976;2024-02-23T02:23:50;26.97;;;17.30;;
5965;SDS011;3009;43.224;27.976;2024-02-23T02:26:18;24.57;;;16.80;;
5965;SDS011;3009;43.224;27.976;2024-02-23T02:28:47;25.13;;;17.00;;
5965;SDS011;3009;43.224;27.976;2024-02-23T02:31:16;26.30;;;16.20;;
5965;SDS011;3009;43.224;27.976;2024-02-23T02:33:45;26.80;;;16.90;;
5965;SDS011;3009;43.224;27.976;2024-02-23T02:36:14;27.50;;;16.03;;
5965;SDS011;3009;43.224;27.976;2024-02-23T02:38:42;24.77;;;16.07;;
5965;SDS011;3009;43.224;27.976;2024-02-23T02:41:11;25.73;;;17.13;;
5965;SDS011;3009;43.224;27.976;2024-02-23T02:43:39;26.93;;;17.40;;
5965;SDS011;3009;43.224;27.976;2024-02-23T02:46:08;26.10;;;17.30;;
5965;SDS011;3009;43.224;27.976;2024-02-23T02:48:36;28.03;;;17.90;;
5965;SDS011;3009;43.224;27.976;2024-02-23T02:51:06;26.10;;;18.23;;
5965;SDS011;3009;43.224;27.976;2024-02-23T02:53:34;26.23;;;17.00;;
5965;SDS011;3009;43.224;27.976;2024-02-23T02:56:05;27.90;;;17.53;;
5965;SDS011;3009;43.224;27.976;2024-02-23T02:58:34;24.03;;;16.83;;
5965;SDS011;3009;43.224;27.976;2024-02-23T03:01:03;27.73;;;17.07;;
5965;SDS011;3009;43.224;27.976;2024-02-23T03:03:31;27.60;;;17.20;;
5965;SDS011;3009;43.224;27.976;2024-02-23T03:06:00;24.67;;;16.90;;
5965;SDS011;3009;43.224;27.976;2024-02-23T03:08:30;26.63;;;16.80;;
5965;SDS011;3009;43.224;27.976;2024-02-23T03:10:58;24.93;;;17.03;;
5965;SDS011;3009;43.224;27.976;2024-02-23T03:13:27;31.10;;;18.70;;
5965;SDS011;3009;43.224;27.976;2024-02-23T03:15:55;23.73;;;15.97;;
5965;SDS011;3009;43.224;27.976;2024-02-23T03:18:24;25.43;;;16.27;;
5965;SDS011;3009;43.224;27.976;2024-02-23T03:20:54;26.83;;;15.90;;
5965;SDS011;3009;43.224;27.976;2024-02-23T03:23:23;29.33;;;17.20;;
5965;SDS011;3009;43.224;27.976;2024-02-23T03:25:53;28.83;;;17.13;;
5965;SDS011;3009;43.224;27.976;2024-02-23T03:28:21;31.33;;;16.50;;
5965;SDS011;3009;43.224;27.976;2024-02-23T03:30:50;25.47;;;16.60;;
5965;SDS011;3009;43.224;27.976;2024-02-23T03:33:18;28.07;;;16.70;;
5965;SDS011;3009;43.224;27.976;2024-02-23T03:35:47;35.40;;;17.13;;
5965;SDS011;3009;43.224;27.976;2024-02-23T03:38:15;24.87;;;16.97;;
5965;SDS011;3009;43.224;27.976;2024-02-23T03:40:44;26.93;;;17.20;;
5965;SDS011;3009;43.224;27.976;2024-02-23T03:43:14;26.47;;;17.07;;
5965;SDS011;3009;43.224;27.976;2024-02-23T03:45:43;25.80;;;17.47;;
5965;SDS011;3009;43.224;27.976;2024-02-23T03:48:11;27.73;;;16.47;;
5965;SDS011;3009;43.224;27.976;2024-02-23T03:50:40;27.90;;;17.97;;
5965;SDS011;3009;43.224;27.976;2024-02-23T03:53:08;25.37;;;17.97;;
5965;SDS011;3009;43.224;27.976;2024-02-23T03:55:37;27.80;;;17.20;;
5965;SDS011;3009;43.224;27.976;2024-02-23T03:58:05;27.87;;;18.67;;
5965;SDS011;3009;43.224;27.976;2024-02-23T04:00:35;35.93;;;18.87;;
5965;SDS011;3009;43.224;27.976;2024-02-23T04:03:04;32.73;;;19.60;;
5965;SDS011;3009;43.224;27.976;2024-02-23T04:05:33;29.13;;;19.37;;
5965;SDS011;3009;43.224;27.976;2024-02-23T04:08:01;29.60;;;18.00;;
5965;SDS011;3009;43.224;27.976;2024-02-23T04:10:32;31.27;;;19.17;;
5965;SDS011;3009;43.224;27.976;2024-02-23T04:13:00;32.23;;;19.30;;
5965;SDS011;3009;43.224;27.976;2024-02-23T04:15:29;31.53;;;19.73;;
5965;SDS011;3009;43.224;27.976;2024-02-23T04:17:58;28.63;;;18.20;;
5965;SDS011;3009;43.224;27.976;2024-02-23T04:20:27;30.47;;;19.47;;
5965;SDS011;3009;43.224;27.976;2024-02-23T04:22:55;31.27;;;18.83;;
5965;SDS011;3009;43.224;27.976;2024-02-23T04:25:24;29.30;;;18.70;;
5965;SDS011;3009;43.224;27.976;2024-02-23T04:27:52;29.00;;;18.50;;
5965;SDS011;3009;43.224;27.976;2024-02-23T04:30:21;26.37;;;17.13;;
5965;SDS011;3009;43.224;27.976;2024-02-23T04:32:50;28.00;;;19.00;;
5965;SDS011;3009;43.224;27.976;2024-02-23T04:35:20;27.83;;;17.53;;
5965;SDS011;3009;43.224;27.976;2024-02-23T04:37:48;29.93;;;18.37;;
5965;SDS011;3009;43.224;27.976;2024-02-23T04:40:17;29.17;;;18.33;;
5965;SDS011;3009;43.224;27.976;2024-02-23T04:42:45;30.77;;;17.77;;
5965;SDS011;3009;43.224;27.976;2024-02-23T04:45:14;31.50;;;18.87;;
5965;SDS011;3009;43.224;27.976;2024-02-23T04:47:43;26.73;;;18.00;;
5965;SDS011;3009;43.224;27.976;2024-02-23T04:50:13;31.70;;;19.20;;
5965;SDS011;3009;43.224;27.976;2024-02-23T04:52:43;35.73;;;20.57;;
5965;SDS011;3009;43.224;27.976;2024-02-23T04:55:12;32.50;;;20.53;;
5965;SDS011;3009;43.224;27.976;2024-02-23T04:57:40;34.03;;;21.17;;
5965;SDS011;3009;43.224;27.976;2024-02-23T05:00:09;33.47;;;20.10;;
5965;SDS011;3009;43.224;27.976;2024-02-23T05:02:39;31.83;;;20.37;;
5965;SDS011;3009;43.224;27.976;2024-02-23T05:05:07;29.47;;;20.23;;
5965;SDS011;3009;43.224;27.976;2024-02-23T05:07:36;34.47;;;20.97;;
5965;SDS011;3009;43.224;27.976;2024-02-23T05:10:07;34.10;;;20.30;;
5965;SDS011;3009;43.224;27.976;2024-02-23T05:12:36;33.83;;;20.47;;
5965;SDS011;3009;43.224;27.976;2024-02-23T05:15:05;31.90;;;21.50;;
5965;SDS011;3009;43.224;27.976;2024-02-23T05:17:34;34.53;;;21.17;;
5965;SDS011;3009;43.224;27.976;2024-02-23T05:20:03;39.60;;;21.30;;
5965;SDS011;3009;43.224;27.976;2024-02-23T05:22:37;38.53;;;21.33;;
5965;SDS011;3009;43.224;27.976;2024-02-23T05:25:08;42.57;;;24.10;;
5965;SDS011;3009;43.224;27.976;2024-02-23T05:27:37;43.27;;;23.60;;
5965;SDS011;3009;43.224;27.976;2024-02-23T05:30:05;47.67;;;25.67;;
5965;SDS011;3009;43.224;27.976;2024-02-23T05:32:35;50.53;;;25.33;;
5965;SDS011;3009;43.224;27.976;2024-02-23T05:35:03;45.17;;;24.50;;
5965;SDS011;3009;43.224;27.976;2024-02-23T05:37:33;45.63;;;27.13;;
5965;SDS011;3009;43.224;27.976;2024-02-23T05:40:01;38.20;;;23.47;;
5965;SDS011;3009;43.224;27.976;2024-02-23T05:42:35;42.60;;;23.77;;
5965;SDS011;3009;43.224;27.976;2024-02-23T05:45:06;32.17;;;20.33;;
5965;SDS011;3009;43.224;27.976;2024-02-23T05:47:36;36.73;;;22.17;;
5965;SDS011;3009;43.224;27.976;2024-02-23T05:50:05;35.93;;;20.47;;
5965;SDS011;3009;43.224;27.976;2024-02-23T05:52:34;36.00;;;20.80;;
5965;SDS011;3009;43.224;27.976;2024-02-23T05:55:03;33.30;;;21.47;;
5965;SDS011;3009;43.224;27.976;2024-02-23T05:57:32;37.23;;;21.57;;
5965;SDS011;3009;43.224;27.976;2024-02-23T06:00:02;34.10;;;21.97;;
5965;SDS011;3009;43.224;27.976;2024-02-23T06:02:30;33.43;;;19.10;;
5965;SDS011;3009;43.224;27.976;2024-02-23T06:04:59;31.40;;;17.57;;
5965;SDS011;3009;43.224;27.976;2024-02-23T06:07:27;28.60;;;17.93;;
5965;SDS011;3009;43.224;27.976;2024-02-23T06:09:56;36.03;;;24.50;;
5965;SDS011;3009;43.224;27.976;2024-02-23T06:12:24;38.47;;;23.87;;
5965;SDS011;3009;43.224;27.976;2024-02-23T06:14:53;30.47;;;20.20;;
5965;SDS011;3009;43.224;27.976;2024-02-23T06:17:24;27.93;;;18.43;;
5965;SDS011;3009;43.224;27.976;2024-02-23T06:19:54;27.80;;;17.40;;
5965;SDS011;3009;43.224;27.976;2024-02-23T06:22:24;24.13;;;16.37;;
5965;SDS011;3009;43.224;27.976;2024-02-23T06:24:52;21.43;;;14.47;;
5965;SDS011;3009;43.224;27.976;2024-02-23T06:27:21;22.50;;;16.30;;
5965;SDS011;3009;43.224;27.976;2024-02-23T06:29:49;21.63;;;15.93;;
5965;SDS011;3009;43.224;27.976;2024-02-23T06:32:17;17.83;;;14.00;;
5965;SDS011;3009;43.224;27.976;2024-02-23T06:34:47;20.70;;;14.70;;
5965;SDS011;3009;43.224;27.976;2024-02-23T06:37:16;16.63;;;13.27;;
5965;SDS011;3009;43.224;27.976;2024-02-23T06:39:44;19.00;;;14.03;;
5965;SDS011;3009;43.224;27.976;2024-02-23T06:42:17;25.63;;;13.67;;
5965;SDS011;3009;43.224;27.976;2024-02-23T06:44:46;22.70;;;15.63;;
5965;SDS011;3009;43.224;27.976;2024-02-23T06:47:15;21.73;;;14.73;;
5965;SDS011;3009;43.224;27.976;2024-02-23T06:49:43;23.23;;;14.83;;
5965;SDS011;3009;43.224;27.976;2024-02-23T06:52:13;23.53;;;15.00;;
5965;SDS011;3009;43.224;27.976;2024-02-23T06:54:42;25.27;;;16.80;;
5965;SDS011;3009;43.224;27.976;2024-02-23T06:57:11;30.77;;;16.47;;
5965;SDS011;3009;43.224;27.976;2024-02-23T06:59:39;23.60;;;14.50;;
5965;SDS011;3009;43.224;27.976;2024-02-23T07:02:08;27.30;;;15.97;;
5965;SDS011;3009;43.224;27.976;2024-02-23T07:04:36;24.20;;;14.30;;
5965;SDS011;3009;43.224;27.976;2024-02-23T07:07:05;22.33;;;14.83;;
5965;SDS011;3009;43.224;27.976;2024-02-23T07:09:36;24.03;;;15.30;;
5965;SDS011;3009;43.224;27.976;2024-02-23T07:12:05;31.97;;;16.30;;
5965;SDS011;3009;43.224;27.976;2024-02-23T07:14:34;24.33;;;15.03;;
5965;SDS011;3009;43.224;27.976;2024-02-23T07:17:03;20.50;;;14.50;;
5965;SDS011;3009;43.224;27.976;2024-02-23T07:19:32;23.00;;;14.83;;
5965;SDS011;3009;43.224;27.976;2024-02-23T07:22:00;24.13;;;15.33;;
5965;SDS011;3009;43.224;27.976;2024-02-23T07:24:29;26.83;;;15.73;;
5965;SDS011;3009;43.224;27.976;2024-02-23T07:27:00;30.40;;;14.83;;
5965;SDS011;3009;43.224;27.976;2024-02-23T07:29:28;27.90;;;16.10;;
5965;SDS011;3009;43.224;27.976;2024-02-23T07:32:03;25.50;;;14.60;;
5965;SDS011;3009;43.224;27.976;2024-02-23T07:34:32;24.00;;;15.90;;
5965;SDS011;3009;43.224;27.976;2024-02-23T07:37:00;24.13;;;15.53;;
5965;SDS011;3009;43.224;27.976;2024-02-23T07:39:29;23.43;;;15.77;;
5965;SDS011;3009;43.224;27.976;2024-02-23T07:41:57;24.10;;;16.93;;
5965;SDS011;3009;43.224;27.976;2024-02-23T07:44:28;25.73;;;16.77;;
5965;SDS011;3009;43.224;27.976;2024-02-23T07:46:57;26.57;;;15.47;;
5965;SDS011;3009;43.224;27.976;2024-02-23T07:49:26;26.10;;;15.70;;
5965;SDS011;3009;43.224;27.976;2024-02-23T07:51:55;26.57;;;17.03;;
5965;SDS011;3009;43.224;27.976;2024-02-23T07:54:23;25.07;;;15.00;;
5965;SDS011;3009;43.224;27.976;2024-02-23T07:56:51;21.50;;;15.43;;
5965;SDS011;3009;43.224;27.976;2024-02-23T08:02:05;25.47;;;15.53;;
5965;SDS011;3009;43.224;27.976;2024-02-23T08:04:34;21.40;;;13.90;;
5965;SDS011;3009;43.224;27.976;2024-02-23T08:07:02;27.40;;;16.27;;
5965;SDS011;3009;43.224;27.976;2024-02-23T08:09:31;27.23;;;16.23;;
5965;SDS011;3009;43.224;27.976;2024-02-23T08:12:00;26.30;;;16.67;;
5965;SDS011;3009;43.224;27.976;2024-02-23T08:14:28;26.30;;;15.10;;
5965;SDS011;3009;43.224;27.976;2024-02-23T08:16:58;23.17;;;15.87;;
5965;SDS011;3009;43.224;27.976;2024-02-23T08:19:29;26.40;;;15.77;;
5965;SDS011;3009;43.224;27.976;2024-02-23T08:21:57;20.50;;;14.77;;
5965;SDS011;3009;43.224;27.976;2024-02-23T08:24:25;24.67;;;15.67;;
5965;SDS011;3009;43.224;27.976;2024-02-23T08:26:54;28.03;;;16.80;;
5965;SDS011;3009;43.224;27.976;2024-02-23T08:29:22;22.97;;;15.63;;
5965;SDS011;3009;43.224;27.976;2024-02-23T08:31:50;20.70;;;14.70;;
5965;SDS011;3009;43.224;27.976;2024-02-23T08:34:20;23.53;;;14.63;;
5965;SDS011;3009;43.224;27.976;2024-02-23T08:36:49;26.03;;;16.77;;
5965;SDS011;3009;43.224;27.976;2024-02-23T08:39:18;26.70;;;15.80;;
5965;SDS011;3009;43.224;27.976;2024-02-23T08:41:49;26.83;;;15.80;;
5965;SDS011;3009;43.224;27.976;2024-02-23T08:44:18;23.13;;;16.43;;
5965;SDS011;3009;43.224;27.976;2024-02-23T08:46:46;23.27;;;16.13;;
5965;SDS011;3009;43.224;27.976;2024-02-23T08:49:15;24.80;;;16.03;;
5965;SDS011;3009;43.224;27.976;2024-02-23T08:51:45;26.60;;;16.60;;
5965;SDS011;3009;43.224;27.976;2024-02-23T08:54:14;26.53;;;17.00;;
5965;SDS011;3009;43.224;27.976;2024-02-23T08:56:44;29.07;;;15.83;;
5965;SDS011;3009;43.224;27.976;2024-02-23T08:59:12;25.57;;;16.40;;
5965;SDS011;3009;43.224;27.976;2024-02-23T09:01:40;22.70;;;15.13;;
5965;SDS011;3009;43.224;27.976;2024-02-23T09:04:11;23.50;;;15.10;;
5965;SDS011;3009;43.224;27.976;2024-02-23T09:06:39;27.60;;;14.50;;
5965;SDS011;3009;43.224;27.976;2024-02-23T09:09:09;23.80;;;15.63;;
5965;SDS011;3009;43.224;27.976;2024-02-23T09:11:37;30.60;;;16.53;;
5965;SDS011;3009;43.224;27.976;2024-02-23T09:14:06;22.33;;;16.20;;
5965;SDS011;3009;43.224;27.976;2024-02-23T09:16:35;21.30;;;15.00;;
5965;SDS011;3009;43.224;27.976;2024-02-23T09:19:04;27.37;;;16.93;;
5965;SDS011;3009;43.224;27.976;2024-02-23T09:21:33;21.30;;;15.23;;
5965;SDS011;3009;43.224;27.976;2024-02-23T09:24:01;25.27;;;17.30;;
5965;SDS011;3009;43.224;27.976;2024-02-23T09:26:31;30.03;;;16.63;;
5965;SDS011;3009;43.224;27.976;2024-02-23T09:29:00;26.60;;;16.00;;
5965;SDS011;3009;43.224;27.976;2024-02-23T09:31:28;25.63;;;15.13;;
5965;SDS011;3009;43.224;27.976;2024-02-23T09:33:58;21.70;;;14.57;;
5965;SDS011;3009;43.224;27.976;2024-02-23T09:36:26;20.47;;;12.47;;
5965;SDS011;3009;43.224;27.976;2024-02-23T09:38:56;20.57;;;14.87;;
5965;SDS011;3009;43.224;27.976;2024-02-23T09:41:25;20.53;;;14.73;;
5965;SDS011;3009;43.224;27.976;2024-02-23T09:43:55;23.87;;;14.63;;
5965;SDS011;3009;43.224;27.976;2024-02-23T09:46:26;26.10;;;14.73;;
5965;SDS011;3009;43.224;27.976;2024-02-23T09:48:54;27.60;;;14.90;;
5965;SDS011;3009;43.224;27.976;2024-02-23T09:51:24;25.77;;;15.90;;
5965;SDS011;3009;43.224;27.976;2024-02-23T09:53:54;22.37;;;14.43;;
5965;SDS011;3009;43.224;27.976;2024-02-23T09:56:25;20.03;;;13.50;;
5965;SDS011;3009;43.224;27.976;2024-02-23T09:58:59;22.73;;;15.50;;
5965;SDS011;3009;43.224;27.976;2024-02-23T10:01:29;21.27;;;14.60;;
5965;SDS011;3009;43.224;27.976;2024-02-23T10:04:00;28.07;;;15.17;;
5965;SDS011;3009;43.224;27.976;2024-02-23T10:06:31;18.27;;;13.33;;
5965;SDS011;3009;43.224;27.976;2024-02-23T10:09:00;19.17;;;12.63;;
5965;SDS011;3009;43.224;27.976;2024-02-23T10:11:31;16.73;;;13.33;;
5965;SDS011;3009;43.224;27.976;2024-02-23T10:14:01;18.43;;;12.70;;
5965;SDS011;3009;43.224;27.976;2024-02-23T10:16:29;24.60;;;13.00;;
5965;SDS011;3009;43.224;27.976;2024-02-23T10:18:57;18.53;;;12.87;;
5965;SDS011;3009;43.224;27.976;2024-02-23T10:21:26;19.87;;;14.43;;
5965;SDS011;3009;43.224;27.976;2024-02-23T10:23:55;24.00;;;14.70;;
5965;SDS011;3009;43.224;27.976;2024-02-23T10:26:23;27.60;;;16.10;;
5965;SDS011;3009;43.224;27.976;2024-02-23T10:28:52;19.17;;;14.30;;
5965;SDS011;3009;43.224;27.976;2024-02-23T10:31:24;25.10;;;14.80;;
5965;SDS011;3009;43.224;27.976;2024-02-23T10:33:52;27.20;;;18.80;;
5965;SDS011;3009;43.224;27.976;2024-02-23T10:36:25;21.47;;;15.23;;
5965;SDS011;3009;43.224;27.976;2024-02-23T10:39:00;18.87;;;13.43;;
5965;SDS011;3009;43.224;27.976;2024-02-23T10:41:32;20.27;;;14.77;;
5965;SDS011;3009;43.224;27.976;2024-02-23T10:44:03;24.60;;;15.50;;
5965;SDS011;3009;43.224;27.976;2024-02-23T10:46:34;22.97;;;16.53;;
5965;SDS011;3009;43.224;27.976;2024-02-23T10:49:04;25.77;;;17.10;;
5965;SDS011;3009;43.224;27.976;2024-02-23T10:51:33;26.03;;;15.70;;
5965;SDS011;3009;43.224;27.976;2024-02-23T10:54:04;30.07;;;18.03;;
5965;SDS011;3009;43.224;27.976;2024-02-23T10:56:33;25.23;;;16.20;;
5965;SDS011;3009;43.224;27.976;2024-02-23T10:59:02;25.67;;;16.00;;
5965;SDS011;3009;43.224;27.976;2024-02-23T11:01:31;26.70;;;15.43;;
5965;SDS011;3009;43.224;27.976;2024-02-23T11:04:03;34.47;;;13.80;;
5965;SDS011;3009;43.224;27.976;2024-02-23T11:06:33;19.60;;;12.40;;
5965;SDS011;3009;43.224;27.976;2024-02-23T11:09:05;23.13;;;13.47;;
5965;SDS011;3009;43.224;27.976;2024-02-23T11:11:36;19.63;;;13.40;;
5965;SDS011;3009;43.224;27.976;2024-02-23T11:14:07;19.87;;;14.37;;
5965;SDS011;3009;43.224;27.976;2024-02-23T11:16:39;23.73;;;14.13;;
5965;SDS011;3009;43.224;27.976;2024-02-23T11:19:09;23.90;;;14.33;;
5965;SDS011;3009;43.224;27.976;2024-02-23T11:21:38;23.00;;;14.30;;
5965;SDS011;3009;43.224;27.976;2024-02-23T11:24:07;23.23;;;15.17;;
5965;SDS011;3009;43.224;27.976;2024-02-23T11:26:36;20.53;;;15.10;;
5965;SDS011;3009;43.224;27.976;2024-02-23T11:29:14;25.03;;;14.60;;
5965;SDS011;3009;43.224;27.976;2024-02-23T11:31:47;23.30;;;13.47;;
5965;SDS011;3009;43.224;27.976;2024-02-23T11:34:21;28.70;;;14.80;;
5965;SDS011;3009;43.224;27.976;2024-02-23T11:36:51;21.97;;;14.03;;
5965;SDS011;3009;43.224;27.976;2024-02-23T11:39:21;17.33;;;12.97;;
5965;SDS011;3009;43.224;27.976;2024-02-23T11:41:50;27.50;;;14.53;;
5965;SDS011;3009;43.224;27.976;2024-02-23T11:44:18;18.63;;;13.77;;
5965;SDS011;3009;43.224;27.976;2024-02-23T11:46:48;19.73;;;14.17;;
5965;SDS011;3009;43.224;27.976;2024-02-23T11:49:17;23.83;;;15.30;;
5965;SDS011;3009;43.224;27.976;2024-02-23T11:51:45;25.33;;;13.63;;
5965;SDS011;3009;43.224;27.976;2024-02-23T11:54:14;20.10;;;14.60;;
5965;SDS011;3009;43.224;27.976;2024-02-23T11:56:42;22.40;;;14.57;;
5965;SDS011;3009;43.224;27.976;2024-02-23T11:59:11;23.90;;;14.93;;
5965;SDS011;3009;43.224;27.976;2024-02-23T12:01:41;28.30;;;15.20;;
5965;SDS011;3009;43.224;27.976;2024-02-23T12:04:10;22.47;;;15.37;;
5965;SDS011;3009;43.224;27.976;2024-02-23T12:06:39;19.00;;;14.43;;
5965;SDS011;3009;43.224;27.976;2024-02-23T12:09:08;27.60;;;15.77;;
5965;SDS011;3009;43.224;27.976;2024-02-23T12:11:39;23.20;;;14.67;;
5965;SDS011;3009;43.224;27.976;2024-02-23T12:14:08;22.43;;;15.97;;
5965;SDS011;3009;43.224;27.976;2024-02-23T12:16:36;32.90;;;15.50;;
5965;SDS011;3009;43.224;27.976;2024-02-23T12:19:07;21.23;;;15.47;;
5965;SDS011;3009;43.224;27.976;2024-02-23T12:21:38;23.73;;;15.87;;
5965;SDS011;3009;43.224;27.976;2024-02-23T12:24:06;22.67;;;14.60;;
5965;SDS011;3009;43.224;27.976;2024-02-23T12:26:35;35.80;;;17.40;;
5965;SDS011;3009;43.224;27.976;2024-02-23T12:29:04;27.57;;;17.70;;
5965;SDS011;3009;43.224;27.976;2024-02-23T12:31:33;26.40;;;15.83;;
5965;SDS011;3009;43.224;27.976;2024-02-23T12:34:02;21.77;;;16.23;;
5965;SDS011;3009;43.224;27.976;2024-02-23T12:36:30;25.67;;;15.40;;
5965;SDS011;3009;43.224;27.976;2024-02-23T12:39:03;31.90;;;16.70;;
5965;SDS011;3009;43.224;27.976;2024-02-23T12:41:31;24.17;;;16.00;;
5965;SDS011;3009;43.224;27.976;2024-02-23T12:44:00;23.70;;;14.80;;
5965;SDS011;3009;43.224;27.976;2024-02-23T12:46:29;21.03;;;15.50;;
5965;SDS011;3009;43.224;27.976;2024-02-23T12:48:57;25.73;;;15.83;;
5965;SDS011;3009;43.224;27.976;2024-02-23T12:51:26;22.90;;;14.90;;
5965;SDS011;3009;43.224;27.976;2024-02-23T12:53:54;34.03;;;15.50;;
5965;SDS011;3009;43.224;27.976;2024-02-23T12:56:24;27.97;;;16.80;;
5965;SDS011;3009;43.224;27.976;2024-02-23T12:58:53;20.40;;;15.33;;
5965;SDS011;3009;43.224;27.976;2024-02-23T13:01:21;24.00;;;15.40;;
5965;SDS011;3009;43.224;27.976;2024-02-23T13:03:50;24.20;;;16.53;;
5965;SDS011;3009;43.224;27.976;2024-02-23T13:06:18;23.77;;;16.47;;
5965;SDS011;3009;43.224;27.976;2024-02-23T13:08:47;28.23;;;16.77;;
5965;SDS011;3009;43.224;27.976;2024-02-23T13:11:16;29.47;;;18.73;;
5965;SDS011;3009;43.224;27.976;2024-02-23T13:13:46;27.07;;;16.17;;
5965;SDS011;3009;43.224;27.976;2024-02-23T13:16:14;21.00;;;15.07;;
5965;SDS011;3009;43.224;27.976;2024-02-23T13:18:43;25.03;;;15.60;;
5965;SDS011;3009;43.224;27.976;2024-02-23T13:21:13;23.10;;;15.53;;
5965;SDS011;3009;43.224;27.976;2024-02-23T13:23:42;23.03;;;14.80;;
5965;SDS011;3009;43.224;27.976;2024-02-23T13:26:10;20.17;;;13.93;;
5965;SDS011;3009;43.224;27.976;2024-02-23T13:28:42;26.10;;;16.43;;
5965;SDS011;3009;43.224;27.976;2024-02-23T13:31:12;22.00;;;15.53;;
5965;SDS011;3009;43.224;27.976;2024-02-23T13:33:41;19.23;;;15.20;;
5965;SDS011;3009;43.224;27.976;2024-02-23T13:36:10;21.77;;;15.03;;
5965;SDS011;3009;43.224;27.976;2024-02-23T13:38:39;23.43;;;15.50;;
5965;SDS011;3009;43.224;27.976;2024-02-23T13:41:08;28.10;;;16.77;;
5965;SDS011;3009;43.224;27.976;2024-02-23T13:43:38;34.20;;;17.37;;
5965;SDS011;3009;43.224;27.976;2024-02-23T13:46:06;28.80;;;16.03;;
5965;SDS011;3009;43.224;27.976;2024-02-23T13:48:37;24.67;;;15.53;;
5965;SDS011;3009;43.224;27.976;2024-02-23T13:51:05;29.87;;;15.60;;
5965;SDS011;3009;43.224;27.976;2024-02-23T13:53:33;23.50;;;15.00;;
5965;SDS011;3009;43.224;27.976;2024-02-23T13:56:04;20.13;;;13.80;;
5965;SDS011;3009;43.224;27.976;2024-02-23T13:58:33;22.60;;;14.33;;
5965;SDS011;3009;43.224;27.976;2024-02-23T14:01:01;20.30;;;13.60;;
5965;SDS011;3009;43.224;27.976;2024-02-23T14:03:30;23.30;;;13.63;;
5965;SDS011;3009;43.224;27.976;2024-02-23T14:06:00;19.23;;;13.53;;
5965;SDS011;3009;43.224;27.976;2024-02-23T14:08:28;20.83;;;14.47;;
5965;SDS011;3009;43.224;27.976;2024-02-23T14:10:57;19.77;;;14.30;;
5965;SDS011;3009;43.224;27.976;2024-02-23T14:13:26;22.90;;;14.40;;
5965;SDS011;3009;43.224;27.976;2024-02-23T14:15:55;23.23;;;15.17;;
5965;SDS011;3009;43.224;27.976;2024-02-23T14:18:23;29.33;;;15.10;;
5965;SDS011;3009;43.224;27.976;2024-02-23T14:20:51;24.33;;;15.53;;
5965;SDS011;3009;43.224;27.976;2024-02-23T14:23:21;20.60;;;13.70;;
5965;SDS011;3009;43.224;27.976;2024-02-23T14:25:50;26.57;;;16.33;;
5965;SDS011;3009;43.224;27.976;2024-02-23T14:28:19;21.50;;;13.40;;
5965;SDS011;3009;43.224;27.976;2024-02-23T14:30:47;20.27;;;13.17;;
5965;SDS011;3009;43.224;27.976;2024-02-23T14:33:15;22.73;;;14.33;;
5965;SDS011;3009;43.224;27.976;2024-02-23T14:35:44;20.03;;;13.60;;
5965;SDS011;3009;43.224;27.976;2024-02-23T14:38:12;22.20;;;13.40;;
5965;SDS011;3009;43.224;27.976;2024-02-23T14:40:42;21.07;;;13.60;;
5965;SDS011;3009;43.224;27.976;2024-02-23T14:43:11;21.60;;;13.80;;
5965;SDS011;3009;43.224;27.976;2024-02-23T14:45:39;36.53;;;17.90;;
5965;SDS011;3009;43.224;27.976;2024-02-23T14:48:08;23.33;;;15.50;;